sensor_id;sensor_type;location;lat;lon;timestamp;P1;durP1;ratioP1;P2;durP2;ratioP2
69573;SDS011;62840;52.366;5.980;2022-08-19T00:00:25;7.75;;;4.22;;
69573;SDS011;62840;52.366;5.980;2022-08-19T00:02:51;7.78;;;5.00;;
69573;SDS011;62840;52.366;5.980;2022-08-19T00:05:17;8.60;;;4.80;;
69573;SDS011;62840;52.366;5.980;2022-08-19T00:07:45;8.32;;;4.55;;
69573;SDS011;62840;52.366;5.980;2022-08-19T00:10:12;8.73;;;5.22;;
69573;SDS011;62840;52.366;5.980;2022-08-19T00:12:40;9.40;;;4.72;;
69573;SDS011;62840;52.366;5.980;2022-08-19T00:15:08;7.75;;;4.63;;
69573;SDS011;62840;52.366;5.980;2022-08-19T00:17:41;7.87;;;4.30;;
69573;SDS011;62840;52.366;5.980;2022-08-19T00:20:09;7.95;;;4.28;;
69573;SDS011;62840;52.366;5.980;2022-08-19T00:22:38;6.70;;;4.30;;
69573;SDS011;62840;52.366;5.980;2022-08-19T00:25:05;6.97;;;3.85;;
69573;SDS011;62840;52.366;5.980;2022-08-19T00:27:32;8.00;;;4.05;;
69573;SDS011;62840;52.366;5.980;2022-08-19T00:29:58;8.10;;;4.40;;
69573;SDS011;62840;52.366;5.980;2022-08-19T00:32:24;8.63;;;4.90;;
69573;SDS011;62840;52.366;5.980;2022-08-19T00:34:53;8.25;;;4.63;;
69573;SDS011;62840;52.366;5.980;2022-08-19T00:37:19;9.52;;;4.65;;
69573;SDS011;62840;52.366;5.980;2022-08-19T00:39:45;9.23;;;4.30;;
69573;SDS011;62840;52.366;5.980;2022-08-19T00:42:10;8.32;;;4.53;;
69573;SDS011;62840;52.366;5.980;2022-08-19T00:44:36;7.93;;;4.80;;
69573;SDS011;62840;52.366;5.980;2022-08-19T00:47:02;8.35;;;4.43;;
69573;SDS011;62840;52.366;5.980;2022-08-19T00:49:29;7.63;;;3.97;;
69573;SDS011;62840;52.366;5.980;2022-08-19T00:52:04;7.20;;;4.00;;
69573;SDS011;62840;52.366;5.980;2022-08-19T00:54:37;7.47;;;4.33;;
69573;SDS011;62840;52.366;5.980;2022-08-19T00:57:05;7.57;;;4.07;;
69573;SDS011;62840;52.366;5.980;2022-08-19T00:59:36;7.40;;;3.95;;
69573;SDS011;62840;52.366;5.980;2022-08-19T01:02:06;8.52;;;4.28;;
69573;SDS011;62840;52.366;5.980;2022-08-19T01:04:32;8.73;;;3.95;;
69573;SDS011;62840;52.366;5.980;2022-08-19T01:06:58;8.83;;;4.63;;
69573;SDS011;62840;52.366;5.980;2022-08-19T01:09:29;8.55;;;3.85;;
69573;SDS011;62840;52.366;5.980;2022-08-19T01:11:56;10.73;;;4.88;;
69573;SDS011;62840;52.366;5.980;2022-08-19T01:14:22;7.70;;;4.22;;
69573;SDS011;62840;52.366;5.980;2022-08-19T01:16:50;8.43;;;3.92;;
69573;SDS011;62840;52.366;5.980;2022-08-19T01:19:21;8.18;;;4.32;;
69573;SDS011;62840;52.366;5.980;2022-08-19T01:21:55;7.63;;;4.18;;
69573;SDS011;62840;52.366;5.980;2022-08-19T01:24:35;6.85;;;3.42;;
69573;SDS011;62840;52.366;5.980;2022-08-19T01:27:03;7.43;;;3.95;;
69573;SDS011;62840;52.366;5.980;2022-08-19T01:29:30;7.40;;;4.10;;
69573;SDS011;62840;52.366;5.980;2022-08-19T01:31:57;8.60;;;4.20;;
69573;SDS011;62840;52.366;5.980;2022-08-19T01:34:23;7.82;;;4.30;;
69573;SDS011;62840;52.366;5.980;2022-08-19T01:36:49;6.97;;;3.97;;
69573;SDS011;62840;52.366;5.980;2022-08-19T01:39:16;7.50;;;4.32;;
69573;SDS011;62840;52.366;5.980;2022-08-19T01:41:49;7.25;;;3.75;;
69573;SDS011;62840;52.366;5.980;2022-08-19T01:44:16;6.95;;;3.55;;
69573;SDS011;62840;52.366;5.980;2022-08-19T01:46:42;7.15;;;3.58;;
69573;SDS011;62840;52.366;5.980;2022-08-19T01:49:09;6.37;;;3.60;;
69573;SDS011;62840;52.366;5.980;2022-08-19T01:51:35;7.32;;;3.78;;
69573;SDS011;62840;52.366;5.980;2022-08-19T01:54:02;6.80;;;4.18;;
69573;SDS011;62840;52.366;5.980;2022-08-19T01:56:28;6.80;;;3.70;;
69573;SDS011;62840;52.366;5.980;2022-08-19T01:58:57;6.87;;;3.80;;
69573;SDS011;62840;52.366;5.980;2022-08-19T02:01:29;7.70;;;4.07;;
69573;SDS011;62840;52.366;5.980;2022-08-19T02:03:55;7.25;;;3.90;;
69573;SDS011;62840;52.366;5.980;2022-08-19T02:06:21;7.27;;;3.57;;
69573;SDS011;62840;52.366;5.980;2022-08-19T02:08:47;7.40;;;4.05;;
69573;SDS011;62840;52.366;5.980;2022-08-19T02:11:17;8.95;;;4.20;;
69573;SDS011;62840;52.366;5.980;2022-08-19T02:13:48;7.50;;;4.25;;
69573;SDS011;62840;52.366;5.980;2022-08-19T02:16:16;8.45;;;4.40;;
69573;SDS011;62840;52.366;5.980;2022-08-19T02:18:43;7.38;;;4.10;;
69573;SDS011;62840;52.366;5.980;2022-08-19T02:21:09;7.05;;;4.05;;
69573;SDS011;62840;52.366;5.980;2022-08-19T02:23:35;7.68;;;4.03;;
69573;SDS011;62840;52.366;5.980;2022-08-19T02:26:01;9.00;;;4.10;;
69573;SDS011;62840;52.366;5.980;2022-08-19T02:28:26;8.18;;;3.65;;
69573;SDS011;62840;52.366;5.980;2022-08-19T02:30:52;9.43;;;4.63;;
69573;SDS011;62840;52.366;5.980;2022-08-19T02:33:21;7.07;;;4.00;;
69573;SDS011;62840;52.366;5.980;2022-08-19T02:35:46;8.68;;;4.00;;
69573;SDS011;62840;52.366;5.980;2022-08-19T02:38:12;7.37;;;3.70;;
69573;SDS011;62840;52.366;5.980;2022-08-19T02:40:38;7.78;;;4.05;;
69573;SDS011;62840;52.366;5.980;2022-08-19T02:43:05;7.75;;;3.88;;
69573;SDS011;62840;52.366;5.980;2022-08-19T02:45:33;8.27;;;3.83;;
69573;SDS011;62840;52.366;5.980;2022-08-19T02:48:00;7.72;;;3.78;;
69573;SDS011;62840;52.366;5.980;2022-08-19T02:50:28;8.40;;;5.20;;
69573;SDS011;62840;52.366;5.980;2022-08-19T02:52:54;7.60;;;4.10;;
69573;SDS011;62840;52.366;5.980;2022-08-19T02:55:20;8.55;;;4.32;;
69573;SDS011;62840;52.366;5.980;2022-08-19T02:57:45;8.38;;;4.25;;
69573;SDS011;62840;52.366;5.980;2022-08-19T03:00:12;7.25;;;4.13;;
69573;SDS011;62840;52.366;5.980;2022-08-19T03:02:39;7.40;;;3.70;;
69573;SDS011;62840;52.366;5.980;2022-08-19T03:05:06;8.02;;;4.38;;
69573;SDS011;62840;52.366;5.980;2022-08-19T03:07:37;8.32;;;4.47;;
69573;SDS011;62840;52.366;5.980;2022-08-19T03:10:03;9.25;;;4.03;;
69573;SDS011;62840;52.366;5.980;2022-08-19T03:12:34;7.70;;;4.13;;
69573;SDS011;62840;52.366;5.980;2022-08-19T03:15:02;8.27;;;4.10;;
69573;SDS011;62840;52.366;5.980;2022-08-19T03:17:30;8.50;;;4.43;;
69573;SDS011;62840;52.366;5.980;2022-08-19T03:19:56;7.70;;;4.33;;
69573;SDS011;62840;52.366;5.980;2022-08-19T03:22:22;7.75;;;4.20;;
69573;SDS011;62840;52.366;5.980;2022-08-19T03:24:50;8.38;;;4.47;;
69573;SDS011;62840;52.366;5.980;2022-08-19T03:27:16;8.02;;;3.80;;
69573;SDS011;62840;52.366;5.980;2022-08-19T03:29:42;7.17;;;4.20;;
69573;SDS011;62840;52.366;5.980;2022-08-19T03:32:08;7.05;;;3.88;;
69573;SDS011;62840;52.366;5.980;2022-08-19T03:34:34;7.47;;;3.85;;
69573;SDS011;62840;52.366;5.980;2022-08-19T03:37:04;7.95;;;4.45;;
69573;SDS011;62840;52.366;5.980;2022-08-19T03:39:33;7.88;;;4.60;;
69573;SDS011;62840;52.366;5.980;2022-08-19T03:42:04;9.10;;;4.50;;
69573;SDS011;62840;52.366;5.980;2022-08-19T03:44:30;8.50;;;4.53;;
69573;SDS011;62840;52.366;5.980;2022-08-19T03:46:57;8.18;;;4.70;;
69573;SDS011;62840;52.366;5.980;2022-08-19T03:49:25;8.18;;;4.75;;
69573;SDS011;62840;52.366;5.980;2022-08-19T03:51:54;9.20;;;5.13;;
69573;SDS011;62840;52.366;5.980;2022-08-19T03:54:22;9.07;;;4.97;;
69573;SDS011;62840;52.366;5.980;2022-08-19T03:56:51;10.07;;;4.53;;
69573;SDS011;62840;52.366;5.980;2022-08-19T03:59:23;8.75;;;4.82;;
69573;SDS011;62840;52.366;5.980;2022-08-19T04:01:52;8.00;;;4.80;;
69573;SDS011;62840;52.366;5.980;2022-08-19T04:04:20;7.93;;;4.90;;
69573;SDS011;62840;52.366;5.980;2022-08-19T04:06:45;9.40;;;4.80;;
69573;SDS011;62840;52.366;5.980;2022-08-19T04:09:11;9.93;;;4.90;;
69573;SDS011;62840;52.366;5.980;2022-08-19T04:11:39;9.63;;;4.90;;
69573;SDS011;62840;52.366;5.980;2022-08-19T04:14:08;9.70;;;4.90;;
69573;SDS011;62840;52.366;5.980;2022-08-19T04:16:38;9.05;;;4.80;;
69573;SDS011;62840;52.366;5.980;2022-08-19T04:19:05;8.10;;;4.50;;
69573;SDS011;62840;52.366;5.980;2022-08-19T04:21:32;8.93;;;4.38;;
69573;SDS011;62840;52.366;5.980;2022-08-19T04:23:58;8.13;;;4.28;;
69573;SDS011;62840;52.366;5.980;2022-08-19T04:26:25;7.85;;;4.15;;
69573;SDS011;62840;52.366;5.980;2022-08-19T04:28:53;7.70;;;4.53;;
69573;SDS011;62840;52.366;5.980;2022-08-19T04:31:20;7.78;;;4.32;;
69573;SDS011;62840;52.366;5.980;2022-08-19T04:33:53;8.27;;;4.32;;
69573;SDS011;62840;52.366;5.980;2022-08-19T04:36:21;8.52;;;4.47;;
69573;SDS011;62840;52.366;5.980;2022-08-19T04:38:53;9.05;;;4.82;;
69573;SDS011;62840;52.366;5.980;2022-08-19T04:41:21;7.77;;;3.97;;
69573;SDS011;62840;52.366;5.980;2022-08-19T04:43:48;7.40;;;4.00;;
69573;SDS011;62840;52.366;5.980;2022-08-19T04:46:14;8.65;;;4.72;;
69573;SDS011;62840;52.366;5.980;2022-08-19T04:48:39;8.00;;;4.67;;
69573;SDS011;62840;52.366;5.980;2022-08-19T04:51:09;8.55;;;4.35;;
69573;SDS011;62840;52.366;5.980;2022-08-19T04:53:38;8.23;;;4.40;;
69573;SDS011;62840;52.366;5.980;2022-08-19T04:56:07;9.07;;;4.70;;
69573;SDS011;62840;52.366;5.980;2022-08-19T04:58:35;11.13;;;4.83;;
69573;SDS011;62840;52.366;5.980;2022-08-19T05:01:04;9.35;;;5.03;;
69573;SDS011;62840;52.366;5.980;2022-08-19T05:03:30;8.65;;;5.00;;
69573;SDS011;62840;52.366;5.980;2022-08-19T05:05:56;9.68;;;4.75;;
69573;SDS011;62840;52.366;5.980;2022-08-19T05:08:24;9.90;;;5.47;;
69573;SDS011;62840;52.366;5.980;2022-08-19T05:10:50;9.18;;;5.18;;
69573;SDS011;62840;52.366;5.980;2022-08-19T05:13:17;10.02;;;5.32;;
69573;SDS011;62840;52.366;5.980;2022-08-19T05:15:45;9.45;;;5.13;;
69573;SDS011;62840;52.366;5.980;2022-08-19T05:18:20;9.45;;;4.93;;
69573;SDS011;62840;52.366;5.980;2022-08-19T05:20:46;10.93;;;5.57;;
69573;SDS011;62840;52.366;5.980;2022-08-19T05:23:11;9.52;;;4.50;;
69573;SDS011;62840;52.366;5.980;2022-08-19T05:25:41;9.80;;;5.25;;
69573;SDS011;62840;52.366;5.980;2022-08-19T05:28:07;10.50;;;5.18;;
69573;SDS011;62840;52.366;5.980;2022-08-19T05:30:33;9.10;;;4.63;;
69573;SDS011;62840;52.366;5.980;2022-08-19T05:32:59;8.47;;;4.73;;
69573;SDS011;62840;52.366;5.980;2022-08-19T05:35:24;10.60;;;4.90;;
69573;SDS011;62840;52.366;5.980;2022-08-19T05:37:50;8.93;;;4.63;;
69573;SDS011;62840;52.366;5.980;2022-08-19T05:40:16;9.23;;;4.90;;
69573;SDS011;62840;52.366;5.980;2022-08-19T05:42:44;9.60;;;4.93;;
69573;SDS011;62840;52.366;5.980;2022-08-19T05:45:10;9.88;;;5.50;;
69573;SDS011;62840;52.366;5.980;2022-08-19T05:47:36;10.18;;;5.50;;
69573;SDS011;62840;52.366;5.980;2022-08-19T05:50:02;11.20;;;5.20;;
69573;SDS011;62840;52.366;5.980;2022-08-19T05:52:29;11.07;;;5.53;;
69573;SDS011;62840;52.366;5.980;2022-08-19T05:54:54;10.57;;;5.80;;
69573;SDS011;62840;52.366;5.980;2022-08-19T05:57:20;10.77;;;5.60;;
69573;SDS011;62840;52.366;5.980;2022-08-19T05:59:49;10.93;;;5.60;;
69573;SDS011;62840;52.366;5.980;2022-08-19T06:02:15;12.82;;;5.53;;
69573;SDS011;62840;52.366;5.980;2022-08-19T06:04:41;11.00;;;5.33;;
69573;SDS011;62840;52.366;5.980;2022-08-19T06:07:07;12.38;;;6.13;;
69573;SDS011;62840;52.366;5.980;2022-08-19T06:09:33;11.52;;;5.85;;
69573;SDS011;62840;52.366;5.980;2022-08-19T06:11:59;11.07;;;5.43;;
69573;SDS011;62840;52.366;5.980;2022-08-19T06:14:26;10.00;;;5.28;;
69573;SDS011;62840;52.366;5.980;2022-08-19T06:16:58;10.70;;;5.50;;
69573;SDS011;62840;52.366;5.980;2022-08-19T06:19:24;9.55;;;5.20;;
69573;SDS011;62840;52.366;5.980;2022-08-19T06:21:50;9.13;;;4.90;;
69573;SDS011;62840;52.366;5.980;2022-08-19T06:24:18;11.35;;;5.15;;
69573;SDS011;62840;52.366;5.980;2022-08-19T06:26:47;8.98;;;5.03;;
69573;SDS011;62840;52.366;5.980;2022-08-19T06:29:15;8.77;;;4.57;;
69573;SDS011;62840;52.366;5.980;2022-08-19T06:31:43;7.47;;;4.13;;
69573;SDS011;62840;52.366;5.980;2022-08-19T06:34:14;7.72;;;4.00;;
69573;SDS011;62840;52.366;5.980;2022-08-19T06:36:41;8.15;;;4.22;;
69573;SDS011;62840;52.366;5.980;2022-08-19T06:39:11;7.53;;;4.35;;
69573;SDS011;62840;52.366;5.980;2022-08-19T06:41:40;7.38;;;4.10;;
69573;SDS011;62840;52.366;5.980;2022-08-19T06:44:09;8.40;;;4.38;;
69573;SDS011;62840;52.366;5.980;2022-08-19T06:46:37;6.93;;;3.90;;
69573;SDS011;62840;52.366;5.980;2022-08-19T06:49:04;6.82;;;3.63;;
69573;SDS011;62840;52.366;5.980;2022-08-19T06:51:34;8.40;;;4.25;;
69573;SDS011;62840;52.366;5.980;2022-08-19T06:54:00;8.88;;;4.47;;
69573;SDS011;62840;52.366;5.980;2022-08-19T06:56:27;7.70;;;4.28;;
69573;SDS011;62840;52.366;5.980;2022-08-19T06:58:55;7.60;;;4.13;;
69573;SDS011;62840;52.366;5.980;2022-08-19T07:01:21;10.03;;;4.70;;
69573;SDS011;62840;52.366;5.980;2022-08-19T07:03:47;10.23;;;5.47;;
69573;SDS011;62840;52.366;5.980;2022-08-19T07:06:14;9.25;;;4.72;;
69573;SDS011;62840;52.366;5.980;2022-08-19T07:08:44;13.93;;;7.47;;
69573;SDS011;62840;52.366;5.980;2022-08-19T07:11:13;18.35;;;9.13;;
69573;SDS011;62840;52.366;5.980;2022-08-19T07:13:42;17.00;;;9.00;;
69573;SDS011;62840;52.366;5.980;2022-08-19T07:16:12;22.35;;;10.27;;
69573;SDS011;62840;52.366;5.980;2022-08-19T07:18:41;18.20;;;9.27;;
69573;SDS011;62840;52.366;5.980;2022-08-19T07:21:07;24.05;;;11.77;;
69573;SDS011;62840;52.366;5.980;2022-08-19T07:23:39;24.67;;;11.35;;
69573;SDS011;62840;52.366;5.980;2022-08-19T07:26:08;25.95;;;11.00;;
69573;SDS011;62840;52.366;5.980;2022-08-19T07:28:38;23.35;;;11.93;;
69573;SDS011;62840;52.366;5.980;2022-08-19T07:31:05;20.95;;;11.32;;
69573;SDS011;62840;52.366;5.980;2022-08-19T07:33:31;22.73;;;11.73;;
69573;SDS011;62840;52.366;5.980;2022-08-19T07:35:57;28.50;;;13.20;;
69573;SDS011;62840;52.366;5.980;2022-08-19T07:38:23;26.95;;;13.60;;
69573;SDS011;62840;52.366;5.980;2022-08-19T07:40:49;26.95;;;12.82;;
69573;SDS011;62840;52.366;5.980;2022-08-19T07:43:17;25.08;;;13.50;;
69573;SDS011;62840;52.366;5.980;2022-08-19T07:45:43;29.13;;;13.63;;
69573;SDS011;62840;52.366;5.980;2022-08-19T07:48:09;29.45;;;13.77;;
69573;SDS011;62840;52.366;5.980;2022-08-19T07:50:34;28.15;;;13.85;;
69573;SDS011;62840;52.366;5.980;2022-08-19T07:53:00;22.53;;;12.43;;
69573;SDS011;62840;52.366;5.980;2022-08-19T07:55:26;26.15;;;13.02;;
69573;SDS011;62840;52.366;5.980;2022-08-19T07:57:52;26.80;;;12.33;;
69573;SDS011;62840;52.366;5.980;2022-08-19T08:00:20;21.27;;;11.38;;
69573;SDS011;62840;52.366;5.980;2022-08-19T08:02:46;23.45;;;12.65;;
69573;SDS011;62840;52.366;5.980;2022-08-19T08:05:12;23.70;;;11.38;;
69573;SDS011;62840;52.366;5.980;2022-08-19T08:07:38;21.23;;;10.60;;
69573;SDS011;62840;52.366;5.980;2022-08-19T08:10:04;20.60;;;10.40;;
69573;SDS011;62840;52.366;5.980;2022-08-19T08:12:33;17.73;;;9.63;;
69573;SDS011;62840;52.366;5.980;2022-08-19T08:15:04;19.80;;;9.75;;
69573;SDS011;62840;52.366;5.980;2022-08-19T08:17:39;19.80;;;9.85;;
69573;SDS011;62840;52.366;5.980;2022-08-19T08:20:05;17.23;;;9.38;;
69573;SDS011;62840;52.366;5.980;2022-08-19T08:22:32;19.38;;;9.25;;
69573;SDS011;62840;52.366;5.980;2022-08-19T08:25:00;18.75;;;10.02;;
69573;SDS011;62840;52.366;5.980;2022-08-19T08:27:29;14.85;;;8.55;;
69573;SDS011;62840;52.366;5.980;2022-08-19T08:29:55;15.87;;;9.13;;
69573;SDS011;62840;52.366;5.980;2022-08-19T08:32:20;19.38;;;9.57;;
69573;SDS011;62840;52.366;5.980;2022-08-19T08:34:49;19.70;;;10.10;;
69573;SDS011;62840;52.366;5.980;2022-08-19T08:37:14;17.80;;;9.73;;
69573;SDS011;62840;52.366;5.980;2022-08-19T08:39:40;17.02;;;8.45;;
69573;SDS011;62840;52.366;5.980;2022-08-19T08:42:07;13.87;;;8.13;;
69573;SDS011;62840;52.366;5.980;2022-08-19T08:44:52;16.52;;;8.43;;
69573;SDS011;62840;52.366;5.980;2022-08-19T08:47:24;17.25;;;8.95;;
69573;SDS011;62840;52.366;5.980;2022-08-19T08:50:01;17.05;;;8.23;;
69573;SDS011;62840;52.366;5.980;2022-08-19T08:52:31;17.67;;;8.70;;
69573;SDS011;62840;52.366;5.980;2022-08-19T08:55:05;12.63;;;7.47;;
69573;SDS011;62840;52.366;5.980;2022-08-19T08:57:38;12.85;;;7.40;;
69573;SDS011;62840;52.366;5.980;2022-08-19T09:00:19;13.02;;;6.28;;
69573;SDS011;62840;52.366;5.980;2022-08-19T09:02:51;14.68;;;7.53;;
69573;SDS011;62840;52.366;5.980;2022-08-19T09:05:19;14.30;;;6.77;;
69573;SDS011;62840;52.366;5.980;2022-08-19T09:07:50;12.73;;;6.85;;
69573;SDS011;62840;52.366;5.980;2022-08-19T09:10:27;13.98;;;7.75;;
69573;SDS011;62840;52.366;5.980;2022-08-19T09:13:04;12.32;;;7.30;;
69573;SDS011;62840;52.366;5.980;2022-08-19T09:15:42;16.52;;;9.02;;
69573;SDS011;62840;52.366;5.980;2022-08-19T09:18:17;16.05;;;9.13;;
69573;SDS011;62840;52.366;5.980;2022-08-19T09:20:46;16.88;;;10.57;;
69573;SDS011;62840;52.366;5.980;2022-08-19T09:23:12;15.52;;;9.20;;
69573;SDS011;62840;52.366;5.980;2022-08-19T09:25:38;16.30;;;8.82;;
69573;SDS011;62840;52.366;5.980;2022-08-19T09:28:04;12.20;;;7.60;;
69573;SDS011;62840;52.366;5.980;2022-08-19T09:30:32;12.75;;;7.38;;
69573;SDS011;62840;52.366;5.980;2022-08-19T09:33:03;14.15;;;8.10;;
69573;SDS011;62840;52.366;5.980;2022-08-19T09:35:29;16.83;;;9.23;;
69573;SDS011;62840;52.366;5.980;2022-08-19T09:37:58;12.52;;;7.35;;
69573;SDS011;62840;52.366;5.980;2022-08-19T09:40:25;15.73;;;9.57;;
69573;SDS011;62840;52.366;5.980;2022-08-19T09:42:53;14.90;;;9.30;;
69573;SDS011;62840;52.366;5.980;2022-08-19T09:45:19;14.07;;;8.93;;
69573;SDS011;62840;52.366;5.980;2022-08-19T09:47:47;16.65;;;8.55;;
69573;SDS011;62840;52.366;5.980;2022-08-19T09:50:13;15.73;;;9.27;;
69573;SDS011;62840;52.366;5.980;2022-08-19T09:52:39;15.63;;;9.15;;
69573;SDS011;62840;52.366;5.980;2022-08-19T09:55:09;13.63;;;7.70;;
69573;SDS011;62840;52.366;5.980;2022-08-19T09:57:36;11.85;;;7.45;;
69573;SDS011;62840;52.366;5.980;2022-08-19T10:00:03;14.30;;;7.93;;
69573;SDS011;62840;52.366;5.980;2022-08-19T10:02:33;11.53;;;6.87;;
69573;SDS011;62840;52.366;5.980;2022-08-19T10:04:59;13.65;;;8.75;;
69573;SDS011;62840;52.366;5.980;2022-08-19T10:07:25;19.15;;;10.82;;
69573;SDS011;62840;52.366;5.980;2022-08-19T10:09:51;18.65;;;10.88;;
69573;SDS011;62840;52.366;5.980;2022-08-19T10:12:19;19.47;;;10.90;;
69573;SDS011;62840;52.366;5.980;2022-08-19T10:14:45;18.38;;;10.88;;
69573;SDS011;62840;52.366;5.980;2022-08-19T10:17:11;17.03;;;9.70;;
69573;SDS011;62840;52.366;5.980;2022-08-19T10:19:37;16.13;;;9.88;;
69573;SDS011;62840;52.366;5.980;2022-08-19T10:22:03;16.40;;;9.67;;
69573;SDS011;62840;52.366;5.980;2022-08-19T10:24:30;18.33;;;10.57;;
69573;SDS011;62840;52.366;5.980;2022-08-19T10:26:56;16.33;;;9.65;;
69573;SDS011;62840;52.366;5.980;2022-08-19T10:29:24;18.10;;;11.55;;
69573;SDS011;62840;52.366;5.980;2022-08-19T10:31:51;16.70;;;9.02;;
69573;SDS011;62840;52.366;5.980;2022-08-19T10:34:16;17.23;;;10.25;;
69573;SDS011;62840;52.366;5.980;2022-08-19T10:36:42;16.87;;;10.50;;
69573;SDS011;62840;52.366;5.980;2022-08-19T10:39:09;15.98;;;9.88;;
69573;SDS011;62840;52.366;5.980;2022-08-19T10:41:35;16.70;;;10.02;;
69573;SDS011;62840;52.366;5.980;2022-08-19T10:44:08;15.13;;;9.27;;
69573;SDS011;62840;52.366;5.980;2022-08-19T10:46:40;14.23;;;9.40;;
69573;SDS011;62840;52.366;5.980;2022-08-19T10:49:09;15.88;;;10.50;;
69573;SDS011;62840;52.366;5.980;2022-08-19T10:51:36;14.68;;;10.32;;
69573;SDS011;62840;52.366;5.980;2022-08-19T10:54:03;18.27;;;11.65;;
69573;SDS011;62840;52.366;5.980;2022-08-19T10:56:30;20.38;;;11.48;;
69573;SDS011;62840;52.366;5.980;2022-08-19T10:58:57;17.98;;;11.02;;
69573;SDS011;62840;52.366;5.980;2022-08-19T11:01:24;20.02;;;12.00;;
69573;SDS011;62840;52.366;5.980;2022-08-19T11:03:53;19.83;;;12.43;;
69573;SDS011;62840;52.366;5.980;2022-08-19T11:06:19;16.95;;;10.50;;
69573;SDS011;62840;52.366;5.980;2022-08-19T11:08:45;16.23;;;10.43;;
69573;SDS011;62840;52.366;5.980;2022-08-19T11:11:11;18.27;;;11.30;;
69573;SDS011;62840;52.366;5.980;2022-08-19T11:13:38;19.13;;;11.07;;
69573;SDS011;62840;52.366;5.980;2022-08-19T11:16:07;19.88;;;11.77;;
69573;SDS011;62840;52.366;5.980;2022-08-19T11:18:36;17.50;;;10.37;;
69573;SDS011;62840;52.366;5.980;2022-08-19T11:21:08;18.23;;;11.25;;
69573;SDS011;62840;52.366;5.980;2022-08-19T11:23:36;19.90;;;11.18;;
69573;SDS011;62840;52.366;5.980;2022-08-19T11:26:02;16.98;;;11.57;;
69573;SDS011;62840;52.366;5.980;2022-08-19T11:28:28;19.30;;;11.10;;
69573;SDS011;62840;52.366;5.980;2022-08-19T11:30:54;19.67;;;10.82;;
69573;SDS011;62840;52.366;5.980;2022-08-19T11:33:20;18.23;;;11.13;;
69573;SDS011;62840;52.366;5.980;2022-08-19T11:35:45;18.63;;;11.02;;
69573;SDS011;62840;52.366;5.980;2022-08-19T11:38:14;17.67;;;11.00;;
69573;SDS011;62840;52.366;5.980;2022-08-19T11:40:39;18.55;;;10.82;;
69573;SDS011;62840;52.366;5.980;2022-08-19T11:43:05;17.83;;;10.65;;
69573;SDS011;62840;52.366;5.980;2022-08-19T11:45:31;16.90;;;10.45;;
69573;SDS011;62840;52.366;5.980;2022-08-19T11:47:57;16.90;;;10.03;;
69573;SDS011;62840;52.366;5.980;2022-08-19T11:50:22;14.15;;;8.43;;
69573;SDS011;62840;52.366;5.980;2022-08-19T11:52:49;13.70;;;8.30;;
69573;SDS011;62840;52.366;5.980;2022-08-19T11:55:17;14.75;;;8.48;;
69573;SDS011;62840;52.366;5.980;2022-08-19T11:57:43;14.63;;;8.38;;
69573;SDS011;62840;52.366;5.980;2022-08-19T12:00:09;16.20;;;9.30;;
69573;SDS011;62840;52.366;5.980;2022-08-19T12:02:37;13.27;;;8.50;;
69573;SDS011;62840;52.366;5.980;2022-08-19T12:05:04;14.85;;;8.90;;
69573;SDS011;62840;52.366;5.980;2022-08-19T12:07:31;14.32;;;7.80;;
69573;SDS011;62840;52.366;5.980;2022-08-19T12:09:57;13.43;;;7.45;;
69573;SDS011;62840;52.366;5.980;2022-08-19T12:12:26;13.27;;;7.60;;
69573;SDS011;62840;52.366;5.980;2022-08-19T12:14:52;15.77;;;7.38;;
69573;SDS011;62840;52.366;5.980;2022-08-19T12:17:18;13.55;;;8.23;;
69573;SDS011;62840;52.366;5.980;2022-08-19T12:19:44;13.37;;;8.23;;
69573;SDS011;62840;52.366;5.980;2022-08-19T12:22:10;13.18;;;8.52;;
69573;SDS011;62840;52.366;5.980;2022-08-19T12:24:35;12.80;;;8.20;;
69573;SDS011;62840;52.366;5.980;2022-08-19T12:27:01;13.35;;;7.93;;
69573;SDS011;62840;52.366;5.980;2022-08-19T12:29:30;12.57;;;7.67;;
69573;SDS011;62840;52.366;5.980;2022-08-19T12:31:56;12.90;;;7.82;;
69573;SDS011;62840;52.366;5.980;2022-08-19T12:34:23;14.75;;;7.85;;
69573;SDS011;62840;52.366;5.980;2022-08-19T12:36:48;12.32;;;8.50;;
69573;SDS011;62840;52.366;5.980;2022-08-19T12:39:14;13.23;;;7.93;;
69573;SDS011;62840;52.366;5.980;2022-08-19T12:41:40;11.35;;;7.20;;
69573;SDS011;62840;52.366;5.980;2022-08-19T12:44:06;12.57;;;7.33;;
69573;SDS011;62840;52.366;5.980;2022-08-19T12:46:34;12.60;;;8.10;;
69573;SDS011;62840;52.366;5.980;2022-08-19T12:49:00;12.05;;;8.27;;
69573;SDS011;62840;52.366;5.980;2022-08-19T12:51:25;12.52;;;8.07;;
69573;SDS011;62840;52.366;5.980;2022-08-19T12:53:51;12.35;;;8.07;;
69573;SDS011;62840;52.366;5.980;2022-08-19T12:56:17;14.83;;;8.07;;
69573;SDS011;62840;52.366;5.980;2022-08-19T12:58:43;11.40;;;7.70;;
69573;SDS011;62840;52.366;5.980;2022-08-19T13:01:09;12.37;;;8.57;;
69573;SDS011;62840;52.366;5.980;2022-08-19T13:03:40;14.65;;;8.95;;
69573;SDS011;62840;52.366;5.980;2022-08-19T13:06:06;13.13;;;8.40;;
69573;SDS011;62840;52.366;5.980;2022-08-19T13:08:33;11.88;;;8.05;;
69573;SDS011;62840;52.366;5.980;2022-08-19T13:11:06;13.57;;;8.90;;
69573;SDS011;62840;52.366;5.980;2022-08-19T13:13:34;13.70;;;8.23;;
69573;SDS011;62840;52.366;5.980;2022-08-19T13:16:00;12.68;;;8.73;;
69573;SDS011;62840;52.366;5.980;2022-08-19T13:18:26;11.60;;;7.57;;
69573;SDS011;62840;52.366;5.980;2022-08-19T13:20:54;12.47;;;7.83;;
69573;SDS011;62840;52.366;5.980;2022-08-19T13:23:20;11.85;;;6.93;;
69573;SDS011;62840;52.366;5.980;2022-08-19T13:25:54;13.77;;;8.50;;
69573;SDS011;62840;52.366;5.980;2022-08-19T13:28:21;12.57;;;8.00;;
69573;SDS011;62840;52.366;5.980;2022-08-19T13:30:47;13.18;;;8.00;;
69573;SDS011;62840;52.366;5.980;2022-08-19T13:33:13;12.67;;;8.10;;
69573;SDS011;62840;52.366;5.980;2022-08-19T13:35:39;15.75;;;8.25;;
69573;SDS011;62840;52.366;5.980;2022-08-19T13:38:10;14.32;;;9.27;;
69573;SDS011;62840;52.366;5.980;2022-08-19T13:40:37;14.30;;;9.27;;
69573;SDS011;62840;52.366;5.980;2022-08-19T13:43:04;14.75;;;9.07;;
69573;SDS011;62840;52.366;5.980;2022-08-19T13:45:31;17.02;;;9.20;;
69573;SDS011;62840;52.366;5.980;2022-08-19T13:47:59;16.77;;;9.52;;
69573;SDS011;62840;52.366;5.980;2022-08-19T13:50:27;15.35;;;8.80;;
69573;SDS011;62840;52.366;5.980;2022-08-19T13:52:55;15.73;;;9.10;;
69573;SDS011;62840;52.366;5.980;2022-08-19T13:55:24;15.07;;;8.73;;
69573;SDS011;62840;52.366;5.980;2022-08-19T13:57:51;14.30;;;10.07;;
69573;SDS011;62840;52.366;5.980;2022-08-19T14:00:18;16.70;;;10.40;;
69573;SDS011;62840;52.366;5.980;2022-08-19T14:02:45;17.60;;;10.68;;
69573;SDS011;62840;52.366;5.980;2022-08-19T14:05:13;15.70;;;10.20;;
69573;SDS011;62840;52.366;5.980;2022-08-19T14:07:41;16.08;;;9.82;;
69573;SDS011;62840;52.366;5.980;2022-08-19T14:10:08;17.17;;;10.90;;
69573;SDS011;62840;52.366;5.980;2022-08-19T14:12:39;16.03;;;10.87;;
69573;SDS011;62840;52.366;5.980;2022-08-19T14:15:06;18.02;;;11.45;;
69573;SDS011;62840;52.366;5.980;2022-08-19T14:17:36;15.88;;;10.23;;
69573;SDS011;62840;52.366;5.980;2022-08-19T14:20:04;18.50;;;10.60;;
69573;SDS011;62840;52.366;5.980;2022-08-19T14:22:34;16.52;;;10.52;;
69573;SDS011;62840;52.366;5.980;2022-08-19T14:25:00;16.80;;;10.27;;
69573;SDS011;62840;52.366;5.980;2022-08-19T14:27:26;18.27;;;11.13;;
69573;SDS011;62840;52.366;5.980;2022-08-19T14:29:54;16.20;;;10.43;;
69573;SDS011;62840;52.366;5.980;2022-08-19T14:32:20;17.67;;;11.32;;
69573;SDS011;62840;52.366;5.980;2022-08-19T14:34:46;17.77;;;11.00;;
69573;SDS011;62840;52.366;5.980;2022-08-19T14:37:11;17.03;;;10.50;;
69573;SDS011;62840;52.366;5.980;2022-08-19T14:39:37;17.52;;;10.50;;